Airfield :
LOGIN :

Register | Disclaimer

   EN    FR    IT 

 










Legend :    VFR   Marginal VFR   IFR   Intensive IFR   Very Intensive IFR
Visi :
Ceiling :
>= 8 km
>= 3000ft
5 to 8 km
1000 to 3000 ft
1500m to 5 km
500 to 1000 ft
800 to 1500m
200 to 500 ft
< 800m
< 200 ft
Symbols :   Thunderstorms  Fog  Heavy snow  Heavy precipitations  Wind > 20 kt
SIGMETs :     Misc.  Thunderstorms  Icing  Turbulence  Mountain Waves  Volcanic Ashes






- Airport Elevation : 297 ft
- IATA code : UIP


LFRQ - Quimper Pluguffan

CURRENT METAR :
  • 280730Z AUTO 32009KT 9999 FEW034/// SCT056/// BKN150/// ///TCU 04/03 Q1012 TEMPO 4500 -SHRA

EXPIRED METARs :
  • 280700Z AUTO 32008KT 9999 BKN030/// BKN058/// BKN068/// ///TCU 04/03 Q1012 TEMPO 4500 -SHRA
  • 280630Z AUTO 33008KT 9999 FEW027/// SCT040/// BKN054/// ///CB 04/03 Q1012 TEMPO 4500 -SHRA
  • 280600Z AUTO 34009KT 9999 FEW024/// BKN029/// BKN036/// ///TCU 04/03 Q1011 TEMPO 4500 -SHRA
  • 280530Z AUTO 35006KT 320V030 9999 FEW026/// SCT032/// BKN042/// ///TCU 04/03 Q1011 TEMPO 4500 -SHRA
  • 280500Z AUTO 36010KT 330V050 9999 FEW017/// SCT033/// BKN041/// ///TCU 04/03 Q1011

TAF TAF LFRQ
Valid from the 28 at 06:00 until the 29 at 06:00 UTC


280500Z 2806/2906 34012KT 9999 SCT020 BKN040
TEMPO 2806/2903 4500 -SHRA BKN020TCU
TEMPO 2817/2819 VRB03KT



MET'MAP, your aeronautical weather chart ! - Copyright ORBIFLY December 2007 - Disclaimer

ORBIFLY MET'MAP TEAM :

Programming & Development : Alexandra Zaïnal
Concept & original design : Baudouin d'Aumeries
Assistance for programming : Marc-Olivier Méhu
Technical & hardware support : Manuel Goepfert

Contact : metmap@orbifly.com




SOURCES & CREDITS :

   NOAA